sensor_id;sensor_type;location;lat;lon;timestamp;temperature;humidity
16038;DHT22;8123;50.906;6.172;2022-12-18T00:00:46;-5.20;99.90
16038;DHT22;8123;50.906;6.172;2022-12-18T00:03:16;-5.20;99.90
16038;DHT22;8123;50.906;6.172;2022-12-18T00:05:51;-5.30;99.90
16038;DHT22;8123;50.906;6.172;2022-12-18T00:08:18;-5.20;99.90
16038;DHT22;8123;50.906;6.172;2022-12-18T00:10:45;-5.30;99.90
16038;DHT22;8123;50.906;6.172;2022-12-18T00:13:11;-5.30;99.90
16038;DHT22;8123;50.906;6.172;2022-12-18T00:15:38;-5.30;99.90
16038;DHT22;8123;50.906;6.172;2022-12-18T00:18:04;-5.30;99.90
16038;DHT22;8123;50.906;6.172;2022-12-18T00:20:30;-5.30;99.90
16038;DHT22;8123;50.906;6.172;2022-12-18T00:22:56;-5.30;99.90
16038;DHT22;8123;50.906;6.172;2022-12-18T00:25:22;-5.40;99.90
16038;DHT22;8123;50.906;6.172;2022-12-18T00:27:48;-5.40;99.90
16038;DHT22;8123;50.906;6.172;2022-12-18T00:30:14;-5.40;99.90
16038;DHT22;8123;50.906;6.172;2022-12-18T00:32:40;-5.30;99.90
16038;DHT22;8123;50.906;6.172;2022-12-18T00:35:06;-5.20;99.90
16038;DHT22;8123;50.906;6.172;2022-12-18T00:37:35;-5.20;99.90
16038;DHT22;8123;50.906;6.172;2022-12-18T00:40:01;-5.20;99.90
16038;DHT22;8123;50.906;6.172;2022-12-18T00:42:27;-5.20;99.90
16038;DHT22;8123;50.906;6.172;2022-12-18T00:45:11;-5.20;99.90
16038;DHT22;8123;50.906;6.172;2022-12-18T00:47:36;-5.20;99.90
16038;DHT22;8123;50.906;6.172;2022-12-18T00:50:02;-5.20;99.90
16038;DHT22;8123;50.906;6.172;2022-12-18T00:52:28;-5.20;99.90
16038;DHT22;8123;50.906;6.172;2022-12-18T00:54:53;-5.10;99.90
16038;DHT22;8123;50.906;6.172;2022-12-18T00:57:19;-5.10;99.90
16038;DHT22;8123;50.906;6.172;2022-12-18T00:59:45;-5.10;99.90
16038;DHT22;8123;50.906;6.172;2022-12-18T01:02:10;-5.10;99.90
16038;DHT22;8123;50.906;6.172;2022-12-18T01:04:38;-5.20;99.90
16038;DHT22;8123;50.906;6.172;2022-12-18T01:07:04;-5.30;99.90
16038;DHT22;8123;50.906;6.172;2022-12-18T01:09:30;-5.30;99.90
16038;DHT22;8123;50.906;6.172;2022-12-18T01:11:55;-5.20;99.90
16038;DHT22;8123;50.906;6.172;2022-12-18T01:14:21;-5.30;99.90
16038;DHT22;8123;50.906;6.172;2022-12-18T01:16:47;-5.30;99.90
16038;DHT22;8123;50.906;6.172;2022-12-18T01:19:12;-5.30;99.90
16038;DHT22;8123;50.906;6.172;2022-12-18T01:21:38;-5.30;99.90
16038;DHT22;8123;50.906;6.172;2022-12-18T01:24:04;-5.40;99.90
16038;DHT22;8123;50.906;6.172;2022-12-18T01:26:30;-5.40;99.90
16038;DHT22;8123;50.906;6.172;2022-12-18T01:28:56;-5.40;99.90
16038;DHT22;8123;50.906;6.172;2022-12-18T01:31:23;-5.50;99.90
16038;DHT22;8123;50.906;6.172;2022-12-18T01:33:50;-5.40;99.90
16038;DHT22;8123;50.906;6.172;2022-12-18T01:38:46;-5.40;99.90
16038;DHT22;8123;50.906;6.172;2022-12-18T01:41:13;-5.40;99.90
16038;DHT22;8123;50.906;6.172;2022-12-18T01:43:55;-5.40;99.90
16038;DHT22;8123;50.906;6.172;2022-12-18T01:46:23;-5.30;99.90
16038;DHT22;8123;50.906;6.172;2022-12-18T01:48:52;-5.40;99.90
16038;DHT22;8123;50.906;6.172;2022-12-18T01:51:19;-5.40;99.90
16038;DHT22;8123;50.906;6.172;2022-12-18T01:53:46;-5.40;99.90
16038;DHT22;8123;50.906;6.172;2022-12-18T01:56:14;-5.40;99.90
16038;DHT22;8123;50.906;6.172;2022-12-18T02:01:16;-5.30;99.90
16038;DHT22;8123;50.906;6.172;2022-12-18T02:03:43;-5.30;99.90
16038;DHT22;8123;50.906;6.172;2022-12-18T02:06:16;-5.20;99.90
16038;DHT22;8123;50.906;6.172;2022-12-18T02:08:47;-5.20;99.90
16038;DHT22;8123;50.906;6.172;2022-12-18T02:23:05;-5.20;99.90
16038;DHT22;8123;50.906;6.172;2022-12-18T02:28:31;-5.10;99.90
16038;DHT22;8123;50.906;6.172;2022-12-18T02:30:59;-5.20;99.90
16038;DHT22;8123;50.906;6.172;2022-12-18T02:33:27;-5.20;99.90
16038;DHT22;8123;50.906;6.172;2022-12-18T02:35:55;-5.30;99.90
16038;DHT22;8123;50.906;6.172;2022-12-18T02:38:22;-5.30;99.90
16038;DHT22;8123;50.906;6.172;2022-12-18T02:40:49;-5.40;99.90
16038;DHT22;8123;50.906;6.172;2022-12-18T02:43:15;-5.30;99.90
16038;DHT22;8123;50.906;6.172;2022-12-18T02:45:55;-5.40;99.90
16038;DHT22;8123;50.906;6.172;2022-12-18T02:48:28;-5.40;99.90
16038;DHT22;8123;50.906;6.172;2022-12-18T02:51:08;-5.40;99.90
16038;DHT22;8123;50.906;6.172;2022-12-18T02:53:51;-5.40;99.90
16038;DHT22;8123;50.906;6.172;2022-12-18T02:56:29;-5.40;99.90
16038;DHT22;8123;50.906;6.172;2022-12-18T02:59:12;-5.50;99.90
16038;DHT22;8123;50.906;6.172;2022-12-18T03:01:46;-5.50;99.90
16038;DHT22;8123;50.906;6.172;2022-12-18T03:07:10;-5.40;99.90
16038;DHT22;8123;50.906;6.172;2022-12-18T03:09:42;-5.40;99.90
16038;DHT22;8123;50.906;6.172;2022-12-18T03:12:22;-5.40;99.90
16038;DHT22;8123;50.906;6.172;2022-12-18T03:15:14;-5.40;99.90
16038;DHT22;8123;50.906;6.172;2022-12-18T03:17:52;-5.30;99.90
16038;DHT22;8123;50.906;6.172;2022-12-18T03:20:21;-5.30;99.90
16038;DHT22;8123;50.906;6.172;2022-12-18T03:22:52;-5.40;99.90
16038;DHT22;8123;50.906;6.172;2022-12-18T03:25:20;-5.40;99.90
16038;DHT22;8123;50.906;6.172;2022-12-18T03:27:49;-5.40;99.90
16038;DHT22;8123;50.906;6.172;2022-12-18T03:30:17;-5.40;99.90
16038;DHT22;8123;50.906;6.172;2022-12-18T03:32:54;-5.40;99.90
16038;DHT22;8123;50.906;6.172;2022-12-18T03:35:29;-5.40;99.90
16038;DHT22;8123;50.906;6.172;2022-12-18T03:37:57;-5.30;99.90
16038;DHT22;8123;50.906;6.172;2022-12-18T03:40:51;-5.30;99.90
16038;DHT22;8123;50.906;6.172;2022-12-18T03:44:08;-5.30;99.90
16038;DHT22;8123;50.906;6.172;2022-12-18T03:46:17;-5.30;99.90
16038;DHT22;8123;50.906;6.172;2022-12-18T03:48:52;-5.30;99.90
16038;DHT22;8123;50.906;6.172;2022-12-18T03:51:28;-5.40;99.90
16038;DHT22;8123;50.906;6.172;2022-12-18T03:53:59;-5.40;99.90
16038;DHT22;8123;50.906;6.172;2022-12-18T03:56:30;-5.40;99.90
16038;DHT22;8123;50.906;6.172;2022-12-18T03:58:58;-5.30;99.90
16038;DHT22;8123;50.906;6.172;2022-12-18T04:01:48;-5.40;99.90
16038;DHT22;8123;50.906;6.172;2022-12-18T04:04:15;-5.40;99.90
16038;DHT22;8123;50.906;6.172;2022-12-18T04:06:42;-5.30;99.90
16038;DHT22;8123;50.906;6.172;2022-12-18T04:09:09;-5.30;99.90
16038;DHT22;8123;50.906;6.172;2022-12-18T04:11:35;-5.30;99.90
16038;DHT22;8123;50.906;6.172;2022-12-18T04:14:00;-5.30;99.90
16038;DHT22;8123;50.906;6.172;2022-12-18T04:16:26;-5.20;99.90
16038;DHT22;8123;50.906;6.172;2022-12-18T04:18:53;-5.20;99.90
16038;DHT22;8123;50.906;6.172;2022-12-18T04:21:19;-5.20;99.90
16038;DHT22;8123;50.906;6.172;2022-12-18T04:23:45;-5.20;99.90
16038;DHT22;8123;50.906;6.172;2022-12-18T04:26:11;-5.20;99.90
16038;DHT22;8123;50.906;6.172;2022-12-18T04:28:38;-5.10;99.90
16038;DHT22;8123;50.906;6.172;2022-12-18T04:31:04;-5.20;99.90
16038;DHT22;8123;50.906;6.172;2022-12-18T04:33:29;-5.10;99.90
16038;DHT22;8123;50.906;6.172;2022-12-18T04:35:55;-5.20;99.90
16038;DHT22;8123;50.906;6.172;2022-12-18T04:38:20;-5.20;99.90
16038;DHT22;8123;50.906;6.172;2022-12-18T04:40:46;-5.10;99.90
16038;DHT22;8123;50.906;6.172;2022-12-18T04:43:12;-5.10;99.90
16038;DHT22;8123;50.906;6.172;2022-12-18T04:45:37;-5.10;99.90
16038;DHT22;8123;50.906;6.172;2022-12-18T04:48:04;-5.10;99.90
16038;DHT22;8123;50.906;6.172;2022-12-18T04:50:30;-5.10;99.90
16038;DHT22;8123;50.906;6.172;2022-12-18T04:52:56;-5.10;99.90
16038;DHT22;8123;50.906;6.172;2022-12-18T04:55:24;-5.00;99.90
16038;DHT22;8123;50.906;6.172;2022-12-18T04:57:50;-5.00;99.90
16038;DHT22;8123;50.906;6.172;2022-12-18T05:00:16;-5.10;99.90
16038;DHT22;8123;50.906;6.172;2022-12-18T05:02:41;-5.10;99.90
16038;DHT22;8123;50.906;6.172;2022-12-18T05:05:08;-5.10;99.90
16038;DHT22;8123;50.906;6.172;2022-12-18T05:07:33;-5.00;99.90
16038;DHT22;8123;50.906;6.172;2022-12-18T05:09:59;-5.10;99.90
16038;DHT22;8123;50.906;6.172;2022-12-18T05:12:25;-5.10;99.90
16038;DHT22;8123;50.906;6.172;2022-12-18T05:14:50;-5.10;99.90
16038;DHT22;8123;50.906;6.172;2022-12-18T05:17:16;-5.20;99.90
16038;DHT22;8123;50.906;6.172;2022-12-18T05:19:42;-5.20;99.90
16038;DHT22;8123;50.906;6.172;2022-12-18T05:22:08;-5.20;99.90
16038;DHT22;8123;50.906;6.172;2022-12-18T05:24:33;-5.30;99.90
16038;DHT22;8123;50.906;6.172;2022-12-18T05:26:59;-5.30;99.90
16038;DHT22;8123;50.906;6.172;2022-12-18T05:29:25;-5.30;99.90
16038;DHT22;8123;50.906;6.172;2022-12-18T05:31:50;-5.30;99.90
16038;DHT22;8123;50.906;6.172;2022-12-18T05:34:16;-5.30;99.90
16038;DHT22;8123;50.906;6.172;2022-12-18T05:36:42;-5.40;99.90
16038;DHT22;8123;50.906;6.172;2022-12-18T05:39:08;-5.40;99.90
16038;DHT22;8123;50.906;6.172;2022-12-18T05:41:33;-5.40;99.90
16038;DHT22;8123;50.906;6.172;2022-12-18T05:43:59;-5.40;99.90
16038;DHT22;8123;50.906;6.172;2022-12-18T05:46:25;-5.30;99.90
16038;DHT22;8123;50.906;6.172;2022-12-18T05:48:51;-5.30;99.90
16038;DHT22;8123;50.906;6.172;2022-12-18T05:51:19;-5.30;99.90
16038;DHT22;8123;50.906;6.172;2022-12-18T05:53:46;-5.30;99.90
16038;DHT22;8123;50.906;6.172;2022-12-18T05:56:15;-5.30;99.90
16038;DHT22;8123;50.906;6.172;2022-12-18T05:58:41;-5.20;99.90
16038;DHT22;8123;50.906;6.172;2022-12-18T06:01:12;-5.20;99.90
16038;DHT22;8123;50.906;6.172;2022-12-18T06:03:38;-5.30;99.90
16038;DHT22;8123;50.906;6.172;2022-12-18T06:06:16;-5.30;99.90
16038;DHT22;8123;50.906;6.172;2022-12-18T06:08:42;-5.30;99.90
16038;DHT22;8123;50.906;6.172;2022-12-18T06:11:07;-5.20;99.90
16038;DHT22;8123;50.906;6.172;2022-12-18T06:13:33;-5.30;99.90
16038;DHT22;8123;50.906;6.172;2022-12-18T06:16:02;-5.20;99.90
16038;DHT22;8123;50.906;6.172;2022-12-18T06:18:28;-5.20;99.90
16038;DHT22;8123;50.906;6.172;2022-12-18T06:20:55;-5.10;99.90
16038;DHT22;8123;50.906;6.172;2022-12-18T06:23:21;-5.10;99.90
16038;DHT22;8123;50.906;6.172;2022-12-18T06:25:47;-5.10;99.90
16038;DHT22;8123;50.906;6.172;2022-12-18T06:28:13;-5.10;99.90
16038;DHT22;8123;50.906;6.172;2022-12-18T06:30:38;-5.00;99.90
16038;DHT22;8123;50.906;6.172;2022-12-18T06:33:04;-5.00;99.90
16038;DHT22;8123;50.906;6.172;2022-12-18T06:35:32;-5.00;99.90
16038;DHT22;8123;50.906;6.172;2022-12-18T06:37:57;-4.90;99.90
16038;DHT22;8123;50.906;6.172;2022-12-18T06:40:23;-4.90;99.90
16038;DHT22;8123;50.906;6.172;2022-12-18T06:42:48;-5.00;99.90
16038;DHT22;8123;50.906;6.172;2022-12-18T06:45:14;-4.90;99.90
16038;DHT22;8123;50.906;6.172;2022-12-18T06:47:41;-5.00;99.90
16038;DHT22;8123;50.906;6.172;2022-12-18T06:50:07;-5.00;99.90
16038;DHT22;8123;50.906;6.172;2022-12-18T06:52:33;-5.00;99.90
16038;DHT22;8123;50.906;6.172;2022-12-18T06:54:59;-5.00;99.90
16038;DHT22;8123;50.906;6.172;2022-12-18T06:57:25;-5.10;99.90
16038;DHT22;8123;50.906;6.172;2022-12-18T06:59:51;-5.00;99.90
16038;DHT22;8123;50.906;6.172;2022-12-18T07:02:17;-5.10;99.90
16038;DHT22;8123;50.906;6.172;2022-12-18T07:04:42;-5.10;99.90
16038;DHT22;8123;50.906;6.172;2022-12-18T07:07:08;-5.10;99.90
16038;DHT22;8123;50.906;6.172;2022-12-18T07:09:34;-5.20;99.90
16038;DHT22;8123;50.906;6.172;2022-12-18T07:11:59;-5.10;99.90
16038;DHT22;8123;50.906;6.172;2022-12-18T07:14:25;-5.10;99.90
16038;DHT22;8123;50.906;6.172;2022-12-18T07:16:50;-5.10;99.90
16038;DHT22;8123;50.906;6.172;2022-12-18T07:19:16;-5.10;99.90
16038;DHT22;8123;50.906;6.172;2022-12-18T07:21:42;-5.10;99.90
16038;DHT22;8123;50.906;6.172;2022-12-18T07:24:07;-5.20;99.90
16038;DHT22;8123;50.906;6.172;2022-12-18T07:26:33;-5.10;99.90
16038;DHT22;8123;50.906;6.172;2022-12-18T07:28:58;-5.10;99.90
16038;DHT22;8123;50.906;6.172;2022-12-18T07:31:25;-5.10;99.90
16038;DHT22;8123;50.906;6.172;2022-12-18T07:33:52;-5.20;99.90
16038;DHT22;8123;50.906;6.172;2022-12-18T07:36:18;-5.20;99.90
16038;DHT22;8123;50.906;6.172;2022-12-18T07:38:47;-5.10;99.90
16038;DHT22;8123;50.906;6.172;2022-12-18T07:41:13;-5.10;99.90
16038;DHT22;8123;50.906;6.172;2022-12-18T07:43:40;-5.10;99.90
16038;DHT22;8123;50.906;6.172;2022-12-18T07:46:07;-5.00;99.90
16038;DHT22;8123;50.906;6.172;2022-12-18T07:48:33;-5.00;99.90
16038;DHT22;8123;50.906;6.172;2022-12-18T07:51:05;-5.00;99.90
16038;DHT22;8123;50.906;6.172;2022-12-18T07:53:31;-4.90;99.90
16038;DHT22;8123;50.906;6.172;2022-12-18T07:55:58;-4.90;99.90
16038;DHT22;8123;50.906;6.172;2022-12-18T07:58:25;-4.90;99.90
16038;DHT22;8123;50.906;6.172;2022-12-18T08:00:51;-4.80;99.90
16038;DHT22;8123;50.906;6.172;2022-12-18T08:03:18;-4.80;99.90
16038;DHT22;8123;50.906;6.172;2022-12-18T08:05:44;-4.70;99.90
16038;DHT22;8123;50.906;6.172;2022-12-18T08:08:10;-4.70;99.90
16038;DHT22;8123;50.906;6.172;2022-12-18T08:10:35;-4.70;99.90
16038;DHT22;8123;50.906;6.172;2022-12-18T08:13:02;-4.70;99.90
16038;DHT22;8123;50.906;6.172;2022-12-18T08:15:28;-4.60;99.90
16038;DHT22;8123;50.906;6.172;2022-12-18T08:17:56;-4.60;99.90
16038;DHT22;8123;50.906;6.172;2022-12-18T08:20:22;-4.50;99.90
16038;DHT22;8123;50.906;6.172;2022-12-18T08:22:47;-4.50;99.90
16038;DHT22;8123;50.906;6.172;2022-12-18T08:25:13;-4.50;99.90
16038;DHT22;8123;50.906;6.172;2022-12-18T08:27:39;-4.40;99.90
16038;DHT22;8123;50.906;6.172;2022-12-18T08:30:05;-4.40;99.90
16038;DHT22;8123;50.906;6.172;2022-12-18T08:32:31;-4.30;99.90
16038;DHT22;8123;50.906;6.172;2022-12-18T08:34:58;-4.30;99.90
16038;DHT22;8123;50.906;6.172;2022-12-18T08:37:24;-4.20;99.90
16038;DHT22;8123;50.906;6.172;2022-12-18T08:39:50;-4.20;99.90
16038;DHT22;8123;50.906;6.172;2022-12-18T08:42:15;-4.10;99.90
16038;DHT22;8123;50.906;6.172;2022-12-18T08:45:05;-4.10;99.90
16038;DHT22;8123;50.906;6.172;2022-12-18T08:47:31;-4.10;99.90
16038;DHT22;8123;50.906;6.172;2022-12-18T08:49:56;-4.00;99.90
16038;DHT22;8123;50.906;6.172;2022-12-18T08:52:22;-3.90;99.90
16038;DHT22;8123;50.906;6.172;2022-12-18T08:54:48;-3.80;99.90
16038;DHT22;8123;50.906;6.172;2022-12-18T08:57:13;-3.70;99.90
16038;DHT22;8123;50.906;6.172;2022-12-18T08:59:39;-3.70;99.90
16038;DHT22;8123;50.906;6.172;2022-12-18T09:02:05;-3.70;99.90
16038;DHT22;8123;50.906;6.172;2022-12-18T09:04:30;-3.60;99.90
16038;DHT22;8123;50.906;6.172;2022-12-18T09:06:56;-3.50;99.90
16038;DHT22;8123;50.906;6.172;2022-12-18T09:09:22;-3.50;99.90
16038;DHT22;8123;50.906;6.172;2022-12-18T09:11:47;-3.40;99.90
16038;DHT22;8123;50.906;6.172;2022-12-18T09:14:13;-3.30;99.90
16038;DHT22;8123;50.906;6.172;2022-12-18T09:16:39;-3.20;99.90
16038;DHT22;8123;50.906;6.172;2022-12-18T09:19:05;-3.20;99.90
16038;DHT22;8123;50.906;6.172;2022-12-18T09:21:34;-3.10;99.90
16038;DHT22;8123;50.906;6.172;2022-12-18T09:24:00;-2.70;99.90
16038;DHT22;8123;50.906;6.172;2022-12-18T09:26:26;-2.50;99.90
16038;DHT22;8123;50.906;6.172;2022-12-18T09:28:52;-2.90;99.90
16038;DHT22;8123;50.906;6.172;2022-12-18T09:31:19;-2.80;99.90
16038;DHT22;8123;50.906;6.172;2022-12-18T09:33:46;-2.80;99.90
16038;DHT22;8123;50.906;6.172;2022-12-18T09:36:13;-2.00;99.90
16038;DHT22;8123;50.906;6.172;2022-12-18T09:38:39;-2.20;99.90
16038;DHT22;8123;50.906;6.172;2022-12-18T09:41:44;-2.50;99.90
16038;DHT22;8123;50.906;6.172;2022-12-18T09:44:31;-2.40;99.90
16038;DHT22;8123;50.906;6.172;2022-12-18T09:49:44;-2.30;99.90
16038;DHT22;8123;50.906;6.172;2022-12-18T09:57:32;-2.20;99.90
16038;DHT22;8123;50.906;6.172;2022-12-18T10:00:04;-2.10;99.90
16038;DHT22;8123;50.906;6.172;2022-12-18T10:02:32;-2.00;99.90
16038;DHT22;8123;50.906;6.172;2022-12-18T10:05:10;-1.90;99.90
16038;DHT22;8123;50.906;6.172;2022-12-18T10:07:55;-1.90;99.90
16038;DHT22;8123;50.906;6.172;2022-12-18T10:13:37;-1.80;99.90
16038;DHT22;8123;50.906;6.172;2022-12-18T10:16:12;-1.70;99.90
16038;DHT22;8123;50.906;6.172;2022-12-18T10:19:11;-1.60;99.90
16038;DHT22;8123;50.906;6.172;2022-12-18T10:24:33;-1.60;99.90
16038;DHT22;8123;50.906;6.172;2022-12-18T10:27:30;-1.50;99.90
16038;DHT22;8123;50.906;6.172;2022-12-18T10:29:57;-1.40;99.90
16038;DHT22;8123;50.906;6.172;2022-12-18T10:32:29;-1.40;99.90
16038;DHT22;8123;50.906;6.172;2022-12-18T10:34:57;-1.30;99.90
16038;DHT22;8123;50.906;6.172;2022-12-18T10:37:25;-1.30;99.90
16038;DHT22;8123;50.906;6.172;2022-12-18T10:40:12;-1.00;99.90
16038;DHT22;8123;50.906;6.172;2022-12-18T10:42:38;-1.20;99.90
16038;DHT22;8123;50.906;6.172;2022-12-18T10:45:13;-1.10;99.90
16038;DHT22;8123;50.906;6.172;2022-12-18T10:47:47;-1.00;99.90
16038;DHT22;8123;50.906;6.172;2022-12-18T10:50:28;-1.00;99.90
16038;DHT22;8123;50.906;6.172;2022-12-18T10:52:57;-0.90;99.90
16038;DHT22;8123;50.906;6.172;2022-12-18T10:55:27;0.10;99.90
16038;DHT22;8123;50.906;6.172;2022-12-18T10:58:32;-0.70;99.90
16038;DHT22;8123;50.906;6.172;2022-12-18T11:01:16;-0.60;99.90
16038;DHT22;8123;50.906;6.172;2022-12-18T11:06:22;-0.50;99.90
16038;DHT22;8123;50.906;6.172;2022-12-18T11:09:04;-0.40;99.90
16038;DHT22;8123;50.906;6.172;2022-12-18T11:11:32;-0.40;99.90
16038;DHT22;8123;50.906;6.172;2022-12-18T11:16:34;-0.30;99.90
16038;DHT22;8123;50.906;6.172;2022-12-18T11:19:32;-0.20;99.90
16038;DHT22;8123;50.906;6.172;2022-12-18T11:21:59;-0.20;99.90
16038;DHT22;8123;50.906;6.172;2022-12-18T11:24:32;-0.20;99.90
16038;DHT22;8123;50.906;6.172;2022-12-18T11:27:03;-0.10;99.90
16038;DHT22;8123;50.906;6.172;2022-12-18T11:29:37;-0.10;99.90
16038;DHT22;8123;50.906;6.172;2022-12-18T11:35:19;0.00;99.90
16038;DHT22;8123;50.906;6.172;2022-12-18T11:40:41;0.10;99.90
16038;DHT22;8123;50.906;6.172;2022-12-18T11:43:19;0.20;99.90
16038;DHT22;8123;50.906;6.172;2022-12-18T11:45:54;0.20;99.90
16038;DHT22;8123;50.906;6.172;2022-12-18T11:49:01;0.20;99.90
16038;DHT22;8123;50.906;6.172;2022-12-18T11:54:18;0.20;99.90
16038;DHT22;8123;50.906;6.172;2022-12-18T12:00:03;0.30;99.90
16038;DHT22;8123;50.906;6.172;2022-12-18T12:02:51;0.30;99.90
16038;DHT22;8123;50.906;6.172;2022-12-18T12:19:29;0.50;99.90
16038;DHT22;8123;50.906;6.172;2022-12-18T12:36:32;0.60;99.90
16038;DHT22;8123;50.906;6.172;2022-12-18T12:39:08;0.70;99.90
16038;DHT22;8123;50.906;6.172;2022-12-18T12:41:37;0.70;99.90
16038;DHT22;8123;50.906;6.172;2022-12-18T12:44:29;0.70;99.90
16038;DHT22;8123;50.906;6.172;2022-12-18T12:46:59;0.70;99.90
16038;DHT22;8123;50.906;6.172;2022-12-18T12:49:29;0.70;99.90
16038;DHT22;8123;50.906;6.172;2022-12-18T12:52:10;0.80;99.90
16038;DHT22;8123;50.906;6.172;2022-12-18T12:54:36;0.70;99.90
16038;DHT22;8123;50.906;6.172;2022-12-18T12:57:13;0.70;99.90
16038;DHT22;8123;50.906;6.172;2022-12-18T13:05:38;0.80;99.90
16038;DHT22;8123;50.906;6.172;2022-12-18T13:08:24;0.80;99.90
16038;DHT22;8123;50.906;6.172;2022-12-18T13:10:52;0.80;99.90
16038;DHT22;8123;50.906;6.172;2022-12-18T13:13:53;1.00;99.90
16038;DHT22;8123;50.906;6.172;2022-12-18T13:16:23;0.80;99.90
16038;DHT22;8123;50.906;6.172;2022-12-18T13:18:54;0.80;99.90
16038;DHT22;8123;50.906;6.172;2022-12-18T13:21:29;0.80;99.90
16038;DHT22;8123;50.906;6.172;2022-12-18T13:23:56;0.80;99.90
16038;DHT22;8123;50.906;6.172;2022-12-18T13:26:33;1.00;99.90
16038;DHT22;8123;50.906;6.172;2022-12-18T13:29:00;0.80;99.90
16038;DHT22;8123;50.906;6.172;2022-12-18T13:34:19;0.70;99.90
16038;DHT22;8123;50.906;6.172;2022-12-18T13:44:11;0.80;99.90
16038;DHT22;8123;50.906;6.172;2022-12-18T13:51:15;0.80;99.90
16038;DHT22;8123;50.906;6.172;2022-12-18T13:55:04;1.10;99.90
16038;DHT22;8123;50.906;6.172;2022-12-18T13:58:24;0.80;99.90
16038;DHT22;8123;50.906;6.172;2022-12-18T14:00:49;1.20;99.90
16038;DHT22;8123;50.906;6.172;2022-12-18T14:03:26;1.30;99.90
16038;DHT22;8123;50.906;6.172;2022-12-18T14:05:56;1.20;99.90
16038;DHT22;8123;50.906;6.172;2022-12-18T14:08:23;0.70;99.90
16038;DHT22;8123;50.906;6.172;2022-12-18T14:10:50;1.10;99.90
16038;DHT22;8123;50.906;6.172;2022-12-18T14:13:37;0.70;99.90
16038;DHT22;8123;50.906;6.172;2022-12-18T14:16:05;0.70;99.90
16038;DHT22;8123;50.906;6.172;2022-12-18T14:18:41;0.70;99.90
16038;DHT22;8123;50.906;6.172;2022-12-18T14:21:22;0.60;99.90
16038;DHT22;8123;50.906;6.172;2022-12-18T14:23:49;0.70;99.90
16038;DHT22;8123;50.906;6.172;2022-12-18T14:26:30;0.60;99.90
16038;DHT22;8123;50.906;6.172;2022-12-18T14:28:58;0.60;99.90
16038;DHT22;8123;50.906;6.172;2022-12-18T14:31:28;0.60;99.90
16038;DHT22;8123;50.906;6.172;2022-12-18T14:33:54;0.60;99.90
16038;DHT22;8123;50.906;6.172;2022-12-18T14:36:25;0.50;99.90
16038;DHT22;8123;50.906;6.172;2022-12-18T14:38:57;0.60;99.90
16038;DHT22;8123;50.906;6.172;2022-12-18T14:41:24;0.70;99.90
16038;DHT22;8123;50.906;6.172;2022-12-18T14:43:51;0.60;99.90
16038;DHT22;8123;50.906;6.172;2022-12-18T14:46:36;0.60;99.90
16038;DHT22;8123;50.906;6.172;2022-12-18T14:49:32;0.90;99.90
16038;DHT22;8123;50.906;6.172;2022-12-18T14:52:06;0.60;99.90
16038;DHT22;8123;50.906;6.172;2022-12-18T14:54:34;0.60;99.90
16038;DHT22;8123;50.906;6.172;2022-12-18T14:57:22;0.50;99.90
16038;DHT22;8123;50.906;6.172;2022-12-18T14:59:49;0.50;99.90
16038;DHT22;8123;50.906;6.172;2022-12-18T15:02:26;0.50;99.90
16038;DHT22;8123;50.906;6.172;2022-12-18T15:07:40;0.50;99.90
16038;DHT22;8123;50.906;6.172;2022-12-18T15:10:13;0.50;99.90
16038;DHT22;8123;50.906;6.172;2022-12-18T15:20:46;0.20;99.90
16038;DHT22;8123;50.906;6.172;2022-12-18T15:23:24;0.30;99.90
16038;DHT22;8123;50.906;6.172;2022-12-18T15:26:11;0.30;99.90
16038;DHT22;8123;50.906;6.172;2022-12-18T15:28:48;0.40;99.90
16038;DHT22;8123;50.906;6.172;2022-12-18T15:36:19;0.30;99.90
16038;DHT22;8123;50.906;6.172;2022-12-18T15:38:49;0.30;99.90
16038;DHT22;8123;50.906;6.172;2022-12-18T15:41:20;0.60;99.90
16038;DHT22;8123;50.906;6.172;2022-12-18T15:43:48;0.40;99.90
16038;DHT22;8123;50.906;6.172;2022-12-18T15:48:46;0.30;99.90
16038;DHT22;8123;50.906;6.172;2022-12-18T15:51:16;0.30;99.90
16038;DHT22;8123;50.906;6.172;2022-12-18T15:53:42;0.20;99.90
16038;DHT22;8123;50.906;6.172;2022-12-18T15:56:12;0.60;99.90
16038;DHT22;8123;50.906;6.172;2022-12-18T15:58:57;0.20;99.90
16038;DHT22;8123;50.906;6.172;2022-12-18T16:01:25;0.20;99.90
16038;DHT22;8123;50.906;6.172;2022-12-18T16:03:51;0.20;99.90
16038;DHT22;8123;50.906;6.172;2022-12-18T16:06:17;0.10;99.90
16038;DHT22;8123;50.906;6.172;2022-12-18T16:08:42;0.10;99.90
16038;DHT22;8123;50.906;6.172;2022-12-18T16:11:35;0.10;99.90
16038;DHT22;8123;50.906;6.172;2022-12-18T16:16:54;0.20;99.90
16038;DHT22;8123;50.906;6.172;2022-12-18T16:19:20;0.10;99.90
16038;DHT22;8123;50.906;6.172;2022-12-18T16:21:47;0.20;99.90
16038;DHT22;8123;50.906;6.172;2022-12-18T16:24:15;0.20;99.90
16038;DHT22;8123;50.906;6.172;2022-12-18T16:26:41;0.10;99.90
16038;DHT22;8123;50.906;6.172;2022-12-18T16:29:08;0.20;99.90
16038;DHT22;8123;50.906;6.172;2022-12-18T16:31:33;-0.20;99.90
16038;DHT22;8123;50.906;6.172;2022-12-18T16:36:48;0.20;99.90
16038;DHT22;8123;50.906;6.172;2022-12-18T16:39:14;0.10;99.90
16038;DHT22;8123;50.906;6.172;2022-12-18T16:41:39;0.20;99.90
16038;DHT22;8123;50.906;6.172;2022-12-18T16:44:05;0.50;99.90
16038;DHT22;8123;50.906;6.172;2022-12-18T16:46:31;0.10;99.90
16038;DHT22;8123;50.906;6.172;2022-12-18T16:48:58;0.50;99.90
16038;DHT22;8123;50.906;6.172;2022-12-18T16:51:24;0.20;99.90
16038;DHT22;8123;50.906;6.172;2022-12-18T16:53:49;0.20;99.90
16038;DHT22;8123;50.906;6.172;2022-12-18T16:56:15;0.10;99.90
16038;DHT22;8123;50.906;6.172;2022-12-18T16:58:41;0.20;99.90
16038;DHT22;8123;50.906;6.172;2022-12-18T17:01:08;0.20;99.90
16038;DHT22;8123;50.906;6.172;2022-12-18T17:03:34;0.20;99.90
16038;DHT22;8123;50.906;6.172;2022-12-18T17:06:04;0.30;99.90
16038;DHT22;8123;50.906;6.172;2022-12-18T17:08:30;0.20;99.90
16038;DHT22;8123;50.906;6.172;2022-12-18T17:11:07;0.30;99.90
16038;DHT22;8123;50.906;6.172;2022-12-18T17:13:33;0.20;99.90
16038;DHT22;8123;50.906;6.172;2022-12-18T17:16:05;0.50;99.90
16038;DHT22;8123;50.906;6.172;2022-12-18T17:18:32;0.50;99.90
16038;DHT22;8123;50.906;6.172;2022-12-18T17:21:03;0.20;99.90
16038;DHT22;8123;50.906;6.172;2022-12-18T17:23:29;0.20;99.90
16038;DHT22;8123;50.906;6.172;2022-12-18T17:25:58;0.20;99.90
16038;DHT22;8123;50.906;6.172;2022-12-18T17:28:26;0.10;99.90
16038;DHT22;8123;50.906;6.172;2022-12-18T17:30:53;0.20;99.90
16038;DHT22;8123;50.906;6.172;2022-12-18T17:33:19;0.20;99.90
16038;DHT22;8123;50.906;6.172;2022-12-18T17:35:45;0.10;99.90
16038;DHT22;8123;50.906;6.172;2022-12-18T17:38:11;0.10;99.90
16038;DHT22;8123;50.906;6.172;2022-12-18T17:40:37;0.20;99.90
16038;DHT22;8123;50.906;6.172;2022-12-18T17:43:02;0.20;99.90
16038;DHT22;8123;50.906;6.172;2022-12-18T17:45:28;0.20;99.90
16038;DHT22;8123;50.906;6.172;2022-12-18T17:47:54;0.20;99.90
16038;DHT22;8123;50.906;6.172;2022-12-18T17:50:20;0.20;99.90
16038;DHT22;8123;50.906;6.172;2022-12-18T17:52:45;0.20;99.90
16038;DHT22;8123;50.906;6.172;2022-12-18T17:55:11;0.20;99.90
16038;DHT22;8123;50.906;6.172;2022-12-18T17:57:37;0.20;99.90
16038;DHT22;8123;50.906;6.172;2022-12-18T18:00:05;0.20;99.90
16038;DHT22;8123;50.906;6.172;2022-12-18T18:02:31;0.20;99.90
16038;DHT22;8123;50.906;6.172;2022-12-18T18:04:56;0.20;99.90
16038;DHT22;8123;50.906;6.172;2022-12-18T18:07:22;0.10;99.90
16038;DHT22;8123;50.906;6.172;2022-12-18T18:09:47;0.20;99.90
16038;DHT22;8123;50.906;6.172;2022-12-18T18:12:13;0.20;99.90
16038;DHT22;8123;50.906;6.172;2022-12-18T18:14:57;0.20;99.90
16038;DHT22;8123;50.906;6.172;2022-12-18T18:17:23;0.20;99.90